sensor_id;sensor_type;location;lat;lon;timestamp;temperature;humidity
53310;DHT22;39197;53.200;5.792;2023-03-14T00:02:06;9.80;99.90
53310;DHT22;39197;53.200;5.792;2023-03-14T00:04:32;9.80;99.90
53310;DHT22;39197;53.200;5.792;2023-03-14T00:06:57;9.70;99.90
53310;DHT22;39197;53.200;5.792;2023-03-14T00:09:23;9.80;99.90
53310;DHT22;39197;53.200;5.792;2023-03-14T00:11:48;9.80;99.90
53310;DHT22;39197;53.200;5.792;2023-03-14T00:14:14;9.70;99.90
53310;DHT22;39197;53.200;5.792;2023-03-14T00:16:41;9.70;99.90
53310;DHT22;39197;53.200;5.792;2023-03-14T00:19:06;9.70;99.90
53310;DHT22;39197;53.200;5.792;2023-03-14T00:21:32;9.70;99.90
53310;DHT22;39197;53.200;5.792;2023-03-14T00:23:58;9.70;99.90
53310;DHT22;39197;53.200;5.792;2023-03-14T00:26:23;9.80;99.90
53310;DHT22;39197;53.200;5.792;2023-03-14T00:28:53;9.90;99.90
53310;DHT22;39197;53.200;5.792;2023-03-14T00:31:19;9.80;99.90
53310;DHT22;39197;53.200;5.792;2023-03-14T00:33:45;9.90;99.90
53310;DHT22;39197;53.200;5.792;2023-03-14T00:36:19;9.80;99.90
53310;DHT22;39197;53.200;5.792;2023-03-14T00:38:47;9.90;99.90
53310;DHT22;39197;53.200;5.792;2023-03-14T00:41:16;9.80;99.90
53310;DHT22;39197;53.200;5.792;2023-03-14T00:43:42;9.70;99.90
53310;DHT22;39197;53.200;5.792;2023-03-14T00:46:08;9.60;99.90
53310;DHT22;39197;53.200;5.792;2023-03-14T00:48:34;9.60;99.90
53310;DHT22;39197;53.200;5.792;2023-03-14T00:51:00;9.40;99.90
53310;DHT22;39197;53.200;5.792;2023-03-14T00:53:26;9.40;99.90
53310;DHT22;39197;53.200;5.792;2023-03-14T00:55:51;9.30;99.90
53310;DHT22;39197;53.200;5.792;2023-03-14T00:58:18;9.30;99.90
53310;DHT22;39197;53.200;5.792;2023-03-14T01:00:45;9.30;99.90
53310;DHT22;39197;53.200;5.792;2023-03-14T01:03:11;9.30;99.90
53310;DHT22;39197;53.200;5.792;2023-03-14T01:05:37;9.30;99.90
53310;DHT22;39197;53.200;5.792;2023-03-14T01:08:04;9.40;99.90
53310;DHT22;39197;53.200;5.792;2023-03-14T01:10:30;9.30;99.90
53310;DHT22;39197;53.200;5.792;2023-03-14T01:12:56;9.30;99.90
53310;DHT22;39197;53.200;5.792;2023-03-14T01:15:22;9.30;99.90
53310;DHT22;39197;53.200;5.792;2023-03-14T01:17:48;9.40;99.90
53310;DHT22;39197;53.200;5.792;2023-03-14T01:20:14;9.40;99.90
53310;DHT22;39197;53.200;5.792;2023-03-14T01:22:41;9.40;99.90
53310;DHT22;39197;53.200;5.792;2023-03-14T01:25:08;9.40;99.90
53310;DHT22;39197;53.200;5.792;2023-03-14T01:27:34;9.40;99.90
53310;DHT22;39197;53.200;5.792;2023-03-14T01:30:00;9.40;99.90
53310;DHT22;39197;53.200;5.792;2023-03-14T01:32:26;9.40;99.90
53310;DHT22;39197;53.200;5.792;2023-03-14T01:34:52;9.40;99.90
53310;DHT22;39197;53.200;5.792;2023-03-14T01:37:17;9.40;99.90
53310;DHT22;39197;53.200;5.792;2023-03-14T01:39:43;9.40;99.90
53310;DHT22;39197;53.200;5.792;2023-03-14T01:42:09;9.40;99.90
53310;DHT22;39197;53.200;5.792;2023-03-14T01:44:55;9.40;99.90
53310;DHT22;39197;53.200;5.792;2023-03-14T01:47:21;9.30;99.90
53310;DHT22;39197;53.200;5.792;2023-03-14T01:49:51;9.30;99.90
53310;DHT22;39197;53.200;5.792;2023-03-14T01:52:23;9.20;99.90
53310;DHT22;39197;53.200;5.792;2023-03-14T01:54:54;9.20;99.90
53310;DHT22;39197;53.200;5.792;2023-03-14T01:59:59;9.20;99.90
53310;DHT22;39197;53.200;5.792;2023-03-14T02:02:26;9.10;99.90
53310;DHT22;39197;53.200;5.792;2023-03-14T02:04:54;9.10;99.90
53310;DHT22;39197;53.200;5.792;2023-03-14T02:07:30;9.10;99.90
53310;DHT22;39197;53.200;5.792;2023-03-14T02:09:59;9.10;99.90
53310;DHT22;39197;53.200;5.792;2023-03-14T02:12:26;9.10;99.90
53310;DHT22;39197;53.200;5.792;2023-03-14T02:14:53;9.10;99.90
53310;DHT22;39197;53.200;5.792;2023-03-14T02:17:19;9.00;99.90
53310;DHT22;39197;53.200;5.792;2023-03-14T02:22:24;9.00;99.90
53310;DHT22;39197;53.200;5.792;2023-03-14T02:27:31;9.00;99.90
53310;DHT22;39197;53.200;5.792;2023-03-14T02:30:10;9.00;99.90
53310;DHT22;39197;53.200;5.792;2023-03-14T02:32:38;9.00;99.90
53310;DHT22;39197;53.200;5.792;2023-03-14T02:35:09;9.00;99.90
53310;DHT22;39197;53.200;5.792;2023-03-14T02:37:41;9.00;99.90
53310;DHT22;39197;53.200;5.792;2023-03-14T02:40:08;8.90;99.90
53310;DHT22;39197;53.200;5.792;2023-03-14T02:42:34;8.90;99.90
53310;DHT22;39197;53.200;5.792;2023-03-14T02:47:54;8.90;99.90
53310;DHT22;39197;53.200;5.792;2023-03-14T02:50:25;8.90;99.90
53310;DHT22;39197;53.200;5.792;2023-03-14T02:52:52;8.90;99.90
53310;DHT22;39197;53.200;5.792;2023-03-14T02:55:22;8.80;99.90
53310;DHT22;39197;53.200;5.792;2023-03-14T02:57:48;8.70;99.90
53310;DHT22;39197;53.200;5.792;2023-03-14T03:00:14;8.70;99.90
53310;DHT22;39197;53.200;5.792;2023-03-14T03:02:40;8.70;99.90
53310;DHT22;39197;53.200;5.792;2023-03-14T03:05:06;8.60;99.90
53310;DHT22;39197;53.200;5.792;2023-03-14T03:07:31;8.70;99.90
53310;DHT22;39197;53.200;5.792;2023-03-14T03:09:57;8.60;99.90
53310;DHT22;39197;53.200;5.792;2023-03-14T03:12:23;8.70;99.90
53310;DHT22;39197;53.200;5.792;2023-03-14T03:14:48;8.60;99.90
53310;DHT22;39197;53.200;5.792;2023-03-14T03:17:14;8.70;99.90
53310;DHT22;39197;53.200;5.792;2023-03-14T03:19:40;8.70;99.90
53310;DHT22;39197;53.200;5.792;2023-03-14T03:22:06;8.60;99.90
53310;DHT22;39197;53.200;5.792;2023-03-14T03:24:32;8.70;99.90
53310;DHT22;39197;53.200;5.792;2023-03-14T03:26:57;8.70;99.90
53310;DHT22;39197;53.200;5.792;2023-03-14T03:29:23;8.70;99.90
53310;DHT22;39197;53.200;5.792;2023-03-14T03:31:48;8.70;99.90
53310;DHT22;39197;53.200;5.792;2023-03-14T03:34:14;8.70;99.90
53310;DHT22;39197;53.200;5.792;2023-03-14T03:36:40;8.80;99.90
53310;DHT22;39197;53.200;5.792;2023-03-14T03:39:06;8.70;99.90
53310;DHT22;39197;53.200;5.792;2023-03-14T03:41:32;8.70;99.90
53310;DHT22;39197;53.200;5.792;2023-03-14T03:43:58;8.70;99.90
53310;DHT22;39197;53.200;5.792;2023-03-14T03:46:23;8.70;99.90
53310;DHT22;39197;53.200;5.792;2023-03-14T03:48:54;8.70;99.90
53310;DHT22;39197;53.200;5.792;2023-03-14T03:51:20;8.70;99.90
53310;DHT22;39197;53.200;5.792;2023-03-14T03:53:46;8.70;99.90
53310;DHT22;39197;53.200;5.792;2023-03-14T03:56:11;8.60;99.90
53310;DHT22;39197;53.200;5.792;2023-03-14T03:58:37;8.60;99.90
53310;DHT22;39197;53.200;5.792;2023-03-14T04:01:05;8.60;99.90
53310;DHT22;39197;53.200;5.792;2023-03-14T04:03:32;8.70;99.90
53310;DHT22;39197;53.200;5.792;2023-03-14T04:06:07;8.70;99.90
53310;DHT22;39197;53.200;5.792;2023-03-14T04:08:33;8.80;99.90
53310;DHT22;39197;53.200;5.792;2023-03-14T04:11:00;8.70;99.90
53310;DHT22;39197;53.200;5.792;2023-03-14T04:13:26;8.80;99.90
53310;DHT22;39197;53.200;5.792;2023-03-14T04:15:53;8.80;99.90
53310;DHT22;39197;53.200;5.792;2023-03-14T04:18:19;8.70;99.90
53310;DHT22;39197;53.200;5.792;2023-03-14T04:20:45;8.70;99.90
53310;DHT22;39197;53.200;5.792;2023-03-14T04:23:10;8.70;99.90
53310;DHT22;39197;53.200;5.792;2023-03-14T04:25:36;8.70;99.90
53310;DHT22;39197;53.200;5.792;2023-03-14T04:28:02;8.60;99.90
53310;DHT22;39197;53.200;5.792;2023-03-14T04:30:29;8.40;99.90
53310;DHT22;39197;53.200;5.792;2023-03-14T04:32:55;8.40;99.90
53310;DHT22;39197;53.200;5.792;2023-03-14T04:35:20;8.40;99.90
53310;DHT22;39197;53.200;5.792;2023-03-14T04:37:46;8.30;99.90
53310;DHT22;39197;53.200;5.792;2023-03-14T04:40:14;8.20;99.90
53310;DHT22;39197;53.200;5.792;2023-03-14T04:42:40;8.10;99.90
53310;DHT22;39197;53.200;5.792;2023-03-14T04:45:07;8.20;99.90
53310;DHT22;39197;53.200;5.792;2023-03-14T04:47:32;8.20;99.90
53310;DHT22;39197;53.200;5.792;2023-03-14T04:49:58;8.20;99.90
53310;DHT22;39197;53.200;5.792;2023-03-14T04:52:23;8.20;99.90
53310;DHT22;39197;53.200;5.792;2023-03-14T04:54:49;8.20;99.90
53310;DHT22;39197;53.200;5.792;2023-03-14T04:57:15;8.20;99.90
53310;DHT22;39197;53.200;5.792;2023-03-14T04:59:40;8.30;99.90
53310;DHT22;39197;53.200;5.792;2023-03-14T05:02:06;8.20;99.90
53310;DHT22;39197;53.200;5.792;2023-03-14T05:04:31;8.20;99.90
53310;DHT22;39197;53.200;5.792;2023-03-14T05:06:59;8.20;99.90
53310;DHT22;39197;53.200;5.792;2023-03-14T05:09:25;8.10;99.90
53310;DHT22;39197;53.200;5.792;2023-03-14T05:11:50;8.20;99.90
53310;DHT22;39197;53.200;5.792;2023-03-14T05:14:16;8.20;99.90
53310;DHT22;39197;53.200;5.792;2023-03-14T05:16:42;8.20;99.90
53310;DHT22;39197;53.200;5.792;2023-03-14T05:19:07;8.20;99.90
53310;DHT22;39197;53.200;5.792;2023-03-14T05:21:33;8.20;99.90
53310;DHT22;39197;53.200;5.792;2023-03-14T05:23:59;8.20;99.90
53310;DHT22;39197;53.200;5.792;2023-03-14T05:26:24;8.20;99.90
53310;DHT22;39197;53.200;5.792;2023-03-14T05:28:50;8.20;99.90
53310;DHT22;39197;53.200;5.792;2023-03-14T05:31:15;8.20;99.90
53310;DHT22;39197;53.200;5.792;2023-03-14T05:33:41;8.20;99.90
53310;DHT22;39197;53.200;5.792;2023-03-14T05:36:07;8.10;99.90
53310;DHT22;39197;53.200;5.792;2023-03-14T05:38:33;8.10;99.90
53310;DHT22;39197;53.200;5.792;2023-03-14T05:40:58;8.00;99.90
53310;DHT22;39197;53.200;5.792;2023-03-14T05:43:24;8.00;99.90
53310;DHT22;39197;53.200;5.792;2023-03-14T05:45:49;7.90;99.90
53310;DHT22;39197;53.200;5.792;2023-03-14T05:48:15;7.80;99.90
53310;DHT22;39197;53.200;5.792;2023-03-14T05:50:42;7.50;99.90
53310;DHT22;39197;53.200;5.792;2023-03-14T05:53:07;7.30;99.90
53310;DHT22;39197;53.200;5.792;2023-03-14T05:55:33;7.10;99.90
53310;DHT22;39197;53.200;5.792;2023-03-14T05:57:59;6.90;99.90
53310;DHT22;39197;53.200;5.792;2023-03-14T06:00:24;6.70;99.90
53310;DHT22;39197;53.200;5.792;2023-03-14T06:02:50;6.60;99.90
53310;DHT22;39197;53.200;5.792;2023-03-14T06:05:16;6.40;99.90
53310;DHT22;39197;53.200;5.792;2023-03-14T06:07:41;6.30;99.90
53310;DHT22;39197;53.200;5.792;2023-03-14T06:10:07;6.20;99.90
53310;DHT22;39197;53.200;5.792;2023-03-14T06:12:33;6.10;99.90
53310;DHT22;39197;53.200;5.792;2023-03-14T06:14:59;5.80;99.90
53310;DHT22;39197;53.200;5.792;2023-03-14T06:17:25;5.60;99.90
53310;DHT22;39197;53.200;5.792;2023-03-14T06:19:50;5.30;99.90
53310;DHT22;39197;53.200;5.792;2023-03-14T06:22:16;5.30;99.90
53310;DHT22;39197;53.200;5.792;2023-03-14T06:24:42;5.20;99.90
53310;DHT22;39197;53.200;5.792;2023-03-14T06:27:07;5.10;99.90
53310;DHT22;39197;53.200;5.792;2023-03-14T06:29:33;4.90;99.90
53310;DHT22;39197;53.200;5.792;2023-03-14T06:31:59;4.90;99.90
53310;DHT22;39197;53.200;5.792;2023-03-14T06:34:24;4.80;99.90
53310;DHT22;39197;53.200;5.792;2023-03-14T06:36:50;4.80;99.90
53310;DHT22;39197;53.200;5.792;2023-03-14T06:39:16;4.80;99.90
53310;DHT22;39197;53.200;5.792;2023-03-14T06:41:42;4.70;99.90
53310;DHT22;39197;53.200;5.792;2023-03-14T06:44:07;4.70;99.90
53310;DHT22;39197;53.200;5.792;2023-03-14T06:46:33;4.70;99.90
53310;DHT22;39197;53.200;5.792;2023-03-14T06:48:58;4.60;99.90
53310;DHT22;39197;53.200;5.792;2023-03-14T06:51:24;4.50;99.90
53310;DHT22;39197;53.200;5.792;2023-03-14T06:53:50;4.60;99.90
53310;DHT22;39197;53.200;5.792;2023-03-14T06:56:15;4.60;99.90
53310;DHT22;39197;53.200;5.792;2023-03-14T06:58:41;4.60;99.90
53310;DHT22;39197;53.200;5.792;2023-03-14T07:01:25;4.60;99.90
53310;DHT22;39197;53.200;5.792;2023-03-14T07:03:51;4.60;99.90
53310;DHT22;39197;53.200;5.792;2023-03-14T07:06:16;4.50;99.90
53310;DHT22;39197;53.200;5.792;2023-03-14T07:08:42;4.50;99.90
53310;DHT22;39197;53.200;5.792;2023-03-14T07:11:08;4.40;99.90
53310;DHT22;39197;53.200;5.792;2023-03-14T07:13:36;4.60;99.90
53310;DHT22;39197;53.200;5.792;2023-03-14T07:16:02;4.60;99.90
53310;DHT22;39197;53.200;5.792;2023-03-14T07:18:28;4.60;99.90
53310;DHT22;39197;53.200;5.792;2023-03-14T07:20:53;4.60;99.90
53310;DHT22;39197;53.200;5.792;2023-03-14T07:23:19;4.70;99.90
53310;DHT22;39197;53.200;5.792;2023-03-14T07:25:44;4.70;99.90
53310;DHT22;39197;53.200;5.792;2023-03-14T07:28:10;4.80;99.90
53310;DHT22;39197;53.200;5.792;2023-03-14T07:30:36;4.80;99.90
53310;DHT22;39197;53.200;5.792;2023-03-14T07:33:01;4.80;99.90
53310;DHT22;39197;53.200;5.792;2023-03-14T07:35:27;4.80;99.90
53310;DHT22;39197;53.200;5.792;2023-03-14T07:37:52;4.90;99.90
53310;DHT22;39197;53.200;5.792;2023-03-14T07:40:18;4.80;99.90
53310;DHT22;39197;53.200;5.792;2023-03-14T07:42:44;4.90;99.90
53310;DHT22;39197;53.200;5.792;2023-03-14T07:45:10;4.90;99.90
53310;DHT22;39197;53.200;5.792;2023-03-14T07:47:36;5.00;99.90
53310;DHT22;39197;53.200;5.792;2023-03-14T07:50:03;5.00;99.90
53310;DHT22;39197;53.200;5.792;2023-03-14T07:52:29;5.10;99.90
53310;DHT22;39197;53.200;5.792;2023-03-14T07:54:54;5.10;99.90
53310;DHT22;39197;53.200;5.792;2023-03-14T07:57:20;5.20;99.90
53310;DHT22;39197;53.200;5.792;2023-03-14T07:59:46;5.20;99.90
53310;DHT22;39197;53.200;5.792;2023-03-14T08:02:12;5.30;99.90
53310;DHT22;39197;53.200;5.792;2023-03-14T08:04:39;5.30;99.90
53310;DHT22;39197;53.200;5.792;2023-03-14T08:07:05;5.30;99.90
53310;DHT22;39197;53.200;5.792;2023-03-14T08:09:31;5.30;99.90
53310;DHT22;39197;53.200;5.792;2023-03-14T08:11:57;5.30;99.90
53310;DHT22;39197;53.200;5.792;2023-03-14T08:14:23;5.40;99.90
53310;DHT22;39197;53.200;5.792;2023-03-14T08:16:51;5.40;99.90
53310;DHT22;39197;53.200;5.792;2023-03-14T08:19:17;5.50;99.90
53310;DHT22;39197;53.200;5.792;2023-03-14T08:21:43;5.50;99.90
53310;DHT22;39197;53.200;5.792;2023-03-14T08:24:09;5.70;99.90
53310;DHT22;39197;53.200;5.792;2023-03-14T08:26:34;5.90;99.90
53310;DHT22;39197;53.200;5.792;2023-03-14T08:29:00;6.00;99.90
53310;DHT22;39197;53.200;5.792;2023-03-14T08:31:26;6.10;99.90
53310;DHT22;39197;53.200;5.792;2023-03-14T08:33:52;6.40;99.90
53310;DHT22;39197;53.200;5.792;2023-03-14T08:36:19;6.70;99.90
53310;DHT22;39197;53.200;5.792;2023-03-14T08:38:45;6.90;99.90
53310;DHT22;39197;53.200;5.792;2023-03-14T08:41:11;7.00;99.90
53310;DHT22;39197;53.200;5.792;2023-03-14T08:43:36;7.10;99.90
53310;DHT22;39197;53.200;5.792;2023-03-14T08:46:03;6.80;99.90
53310;DHT22;39197;53.200;5.792;2023-03-14T08:48:29;6.80;99.90
53310;DHT22;39197;53.200;5.792;2023-03-14T08:51:09;6.70;99.90
53310;DHT22;39197;53.200;5.792;2023-03-14T08:53:36;6.60;99.90
53310;DHT22;39197;53.200;5.792;2023-03-14T08:56:02;6.50;99.90
53310;DHT22;39197;53.200;5.792;2023-03-14T08:58:29;6.30;99.90
53310;DHT22;39197;53.200;5.792;2023-03-14T09:00:55;6.10;99.90
53310;DHT22;39197;53.200;5.792;2023-03-14T09:03:21;6.00;99.90
53310;DHT22;39197;53.200;5.792;2023-03-14T09:05:49;6.10;99.90
53310;DHT22;39197;53.200;5.792;2023-03-14T09:08:14;6.10;99.90
53310;DHT22;39197;53.200;5.792;2023-03-14T09:10:40;6.10;99.90
53310;DHT22;39197;53.200;5.792;2023-03-14T09:13:06;6.30;99.90
53310;DHT22;39197;53.200;5.792;2023-03-14T09:15:32;6.30;99.90
53310;DHT22;39197;53.200;5.792;2023-03-14T09:17:58;6.30;99.90
53310;DHT22;39197;53.200;5.792;2023-03-14T09:20:23;6.30;99.90
53310;DHT22;39197;53.200;5.792;2023-03-14T09:22:49;6.30;99.90
53310;DHT22;39197;53.200;5.792;2023-03-14T09:25:15;6.30;99.90
53310;DHT22;39197;53.200;5.792;2023-03-14T09:27:40;6.40;99.90
53310;DHT22;39197;53.200;5.792;2023-03-14T09:30:07;6.60;99.90
53310;DHT22;39197;53.200;5.792;2023-03-14T09:32:32;7.00;99.90
53310;DHT22;39197;53.200;5.792;2023-03-14T09:34:58;7.40;99.90
53310;DHT22;39197;53.200;5.792;2023-03-14T09:37:24;7.70;99.90
53310;DHT22;39197;53.200;5.792;2023-03-14T09:39:49;7.80;99.90
53310;DHT22;39197;53.200;5.792;2023-03-14T09:42:18;7.60;99.90
53310;DHT22;39197;53.200;5.792;2023-03-14T09:45:05;7.60;99.90
53310;DHT22;39197;53.200;5.792;2023-03-14T09:47:33;7.70;99.90
53310;DHT22;39197;53.200;5.792;2023-03-14T09:50:00;7.90;99.90
53310;DHT22;39197;53.200;5.792;2023-03-14T09:52:33;7.60;99.90
53310;DHT22;39197;53.200;5.792;2023-03-14T09:55:03;8.20;99.90
53310;DHT22;39197;53.200;5.792;2023-03-14T09:57:29;8.20;99.90
53310;DHT22;39197;53.200;5.792;2023-03-14T10:00:03;8.00;99.90
53310;DHT22;39197;53.200;5.792;2023-03-14T10:02:41;7.90;99.90
53310;DHT22;39197;53.200;5.792;2023-03-14T10:05:15;8.40;99.90
53310;DHT22;39197;53.200;5.792;2023-03-14T10:07:41;8.50;99.90
53310;DHT22;39197;53.200;5.792;2023-03-14T10:10:19;7.80;99.90
53310;DHT22;39197;53.200;5.792;2023-03-14T10:12:47;7.90;99.90
53310;DHT22;39197;53.200;5.792;2023-03-14T10:15:15;8.50;99.90
53310;DHT22;39197;53.200;5.792;2023-03-14T10:17:49;8.50;99.90
53310;DHT22;39197;53.200;5.792;2023-03-14T10:25:41;8.30;99.90
53310;DHT22;39197;53.200;5.792;2023-03-14T10:28:27;8.80;99.90
53310;DHT22;39197;53.200;5.792;2023-03-14T10:30:54;9.30;99.90
53310;DHT22;39197;53.200;5.792;2023-03-14T10:33:25;9.90;99.90
53310;DHT22;39197;53.200;5.792;2023-03-14T10:36:00;9.80;99.90
53310;DHT22;39197;53.200;5.792;2023-03-14T10:38:30;9.90;99.90
53310;DHT22;39197;53.200;5.792;2023-03-14T10:40:56;9.40;99.90
53310;DHT22;39197;53.200;5.792;2023-03-14T10:43:26;8.80;99.90
53310;DHT22;39197;53.200;5.792;2023-03-14T10:45:58;8.60;99.90
53310;DHT22;39197;53.200;5.792;2023-03-14T10:48:31;8.30;99.90
53310;DHT22;39197;53.200;5.792;2023-03-14T10:56:12;10.00;99.90
53310;DHT22;39197;53.200;5.792;2023-03-14T10:58:49;9.90;99.90
53310;DHT22;39197;53.200;5.792;2023-03-14T11:03:57;10.20;98.80
53310;DHT22;39197;53.200;5.792;2023-03-14T11:09:10;10.40;96.60
53310;DHT22;39197;53.200;5.792;2023-03-14T11:11:39;10.50;96.70
53310;DHT22;39197;53.200;5.792;2023-03-14T11:22:17;11.60;95.70
53310;DHT22;39197;53.200;5.792;2023-03-14T11:25:06;11.80;94.80
53310;DHT22;39197;53.200;5.792;2023-03-14T11:30:38;11.10;95.10
53310;DHT22;39197;53.200;5.792;2023-03-14T11:33:34;11.10;96.70
53310;DHT22;39197;53.200;5.792;2023-03-14T11:36:07;10.60;96.30
53310;DHT22;39197;53.200;5.792;2023-03-14T11:41:02;10.00;98.20
53310;DHT22;39197;53.200;5.792;2023-03-14T11:43:33;10.40;99.50
53310;DHT22;39197;53.200;5.792;2023-03-14T11:46:07;9.20;99.90
53310;DHT22;39197;53.200;5.792;2023-03-14T11:51:41;9.30;99.90
53310;DHT22;39197;53.200;5.792;2023-03-14T11:56:55;8.90;99.90
53310;DHT22;39197;53.200;5.792;2023-03-14T11:59:29;8.40;99.90
53310;DHT22;39197;53.200;5.792;2023-03-14T12:01:57;8.50;99.90
53310;DHT22;39197;53.200;5.792;2023-03-14T12:07:39;9.00;99.90
53310;DHT22;39197;53.200;5.792;2023-03-14T12:10:09;9.30;99.90
53310;DHT22;39197;53.200;5.792;2023-03-14T12:12:35;9.40;99.90
53310;DHT22;39197;53.200;5.792;2023-03-14T12:15:04;9.40;99.90
53310;DHT22;39197;53.200;5.792;2023-03-14T12:17:39;9.50;99.90
53310;DHT22;39197;53.200;5.792;2023-03-14T12:25:20;9.30;98.00
53310;DHT22;39197;53.200;5.792;2023-03-14T12:28:02;9.00;96.20
53310;DHT22;39197;53.200;5.792;2023-03-14T12:30:36;9.10;95.90
53310;DHT22;39197;53.200;5.792;2023-03-14T12:33:31;9.60;96.60
53310;DHT22;39197;53.200;5.792;2023-03-14T12:35:59;9.70;97.10
53310;DHT22;39197;53.200;5.792;2023-03-14T12:38:37;10.20;97.90
53310;DHT22;39197;53.200;5.792;2023-03-14T12:41:41;9.60;98.30
53310;DHT22;39197;53.200;5.792;2023-03-14T12:46:59;9.40;98.80
53310;DHT22;39197;53.200;5.792;2023-03-14T12:49:32;9.30;98.40
53310;DHT22;39197;53.200;5.792;2023-03-14T12:52:15;9.80;97.20
53310;DHT22;39197;53.200;5.792;2023-03-14T12:54:50;9.80;97.80
53310;DHT22;39197;53.200;5.792;2023-03-14T12:59:56;10.50;96.40
53310;DHT22;39197;53.200;5.792;2023-03-14T13:02:38;9.90;95.40
53310;DHT22;39197;53.200;5.792;2023-03-14T13:05:18;9.80;94.80
53310;DHT22;39197;53.200;5.792;2023-03-14T13:10:48;9.80;94.60
53310;DHT22;39197;53.200;5.792;2023-03-14T13:13:22;9.90;95.70
53310;DHT22;39197;53.200;5.792;2023-03-14T13:15:58;9.90;96.30
53310;DHT22;39197;53.200;5.792;2023-03-14T13:18:40;9.50;95.80
53310;DHT22;39197;53.200;5.792;2023-03-14T13:21:19;9.40;96.50
53310;DHT22;39197;53.200;5.792;2023-03-14T13:24:00;9.90;97.10
53310;DHT22;39197;53.200;5.792;2023-03-14T13:28:59;10.40;96.90
53310;DHT22;39197;53.200;5.792;2023-03-14T13:31:26;10.20;96.80
53310;DHT22;39197;53.200;5.792;2023-03-14T13:34:04;10.10;96.00
53310;DHT22;39197;53.200;5.792;2023-03-14T13:36:30;10.00;95.40
53310;DHT22;39197;53.200;5.792;2023-03-14T13:38:58;10.30;96.50
53310;DHT22;39197;53.200;5.792;2023-03-14T13:41:24;9.60;96.20
53310;DHT22;39197;53.200;5.792;2023-03-14T13:43:51;9.40;97.00
53310;DHT22;39197;53.200;5.792;2023-03-14T13:46:22;10.00;96.70
53310;DHT22;39197;53.200;5.792;2023-03-14T13:48:59;10.10;96.80
53310;DHT22;39197;53.200;5.792;2023-03-14T13:51:26;10.10;95.10
53310;DHT22;39197;53.200;5.792;2023-03-14T13:53:56;9.90;96.30
53310;DHT22;39197;53.200;5.792;2023-03-14T13:56:28;9.70;96.00
53310;DHT22;39197;53.200;5.792;2023-03-14T13:58:55;10.20;95.40
53310;DHT22;39197;53.200;5.792;2023-03-14T14:01:32;10.20;95.10
53310;DHT22;39197;53.200;5.792;2023-03-14T14:04:05;10.00;94.60
53310;DHT22;39197;53.200;5.792;2023-03-14T14:06:39;10.00;95.40
53310;DHT22;39197;53.200;5.792;2023-03-14T14:09:30;9.90;95.70
53310;DHT22;39197;53.200;5.792;2023-03-14T14:12:06;10.00;96.20
53310;DHT22;39197;53.200;5.792;2023-03-14T14:14:39;9.70;95.80
53310;DHT22;39197;53.200;5.792;2023-03-14T14:17:11;9.70;95.30
53310;DHT22;39197;53.200;5.792;2023-03-14T14:19:38;9.40;96.60
53310;DHT22;39197;53.200;5.792;2023-03-14T14:22:07;9.50;97.80
53310;DHT22;39197;53.200;5.792;2023-03-14T14:24:36;9.60;98.40
53310;DHT22;39197;53.200;5.792;2023-03-14T14:27:55;9.30;98.70
53310;DHT22;39197;53.200;5.792;2023-03-14T14:32:42;8.80;99.90
53310;DHT22;39197;53.200;5.792;2023-03-14T14:35:17;9.10;99.90
53310;DHT22;39197;53.200;5.792;2023-03-14T14:37:48;9.60;99.90
53310;DHT22;39197;53.200;5.792;2023-03-14T14:40:21;10.00;99.90
53310;DHT22;39197;53.200;5.792;2023-03-14T14:42:47;10.20;98.60
53310;DHT22;39197;53.200;5.792;2023-03-14T14:45:18;9.70;99.30
53310;DHT22;39197;53.200;5.792;2023-03-14T14:50:33;8.80;99.90
53310;DHT22;39197;53.200;5.792;2023-03-14T14:53:01;9.50;99.10
53310;DHT22;39197;53.200;5.792;2023-03-14T14:55:38;9.50;98.50
53310;DHT22;39197;53.200;5.792;2023-03-14T14:58:58;9.40;99.40
53310;DHT22;39197;53.200;5.792;2023-03-14T15:03:32;9.70;98.90
53310;DHT22;39197;53.200;5.792;2023-03-14T15:05:58;10.40;98.80
53310;DHT22;39197;53.200;5.792;2023-03-14T15:08:25;10.40;97.50
53310;DHT22;39197;53.200;5.792;2023-03-14T15:10:51;10.10;97.40
53310;DHT22;39197;53.200;5.792;2023-03-14T15:13:17;9.70;97.00
53310;DHT22;39197;53.200;5.792;2023-03-14T15:15:43;9.20;97.30
53310;DHT22;39197;53.200;5.792;2023-03-14T15:18:16;8.70;99.40
53310;DHT22;39197;53.200;5.792;2023-03-14T15:20:43;7.90;99.90
53310;DHT22;39197;53.200;5.792;2023-03-14T15:23:13;7.20;99.90
53310;DHT22;39197;53.200;5.792;2023-03-14T15:25:39;6.70;99.90
53310;DHT22;39197;53.200;5.792;2023-03-14T15:28:15;6.70;99.90
53310;DHT22;39197;53.200;5.792;2023-03-14T15:30:41;7.10;99.90
53310;DHT22;39197;53.200;5.792;2023-03-14T15:33:07;7.00;99.90
53310;DHT22;39197;53.200;5.792;2023-03-14T15:35:37;7.20;99.90
53310;DHT22;39197;53.200;5.792;2023-03-14T15:38:03;7.40;99.90
53310;DHT22;39197;53.200;5.792;2023-03-14T15:40:29;7.50;99.90
53310;DHT22;39197;53.200;5.792;2023-03-14T15:42:57;7.50;99.90
53310;DHT22;39197;53.200;5.792;2023-03-14T15:45:23;7.50;99.90
53310;DHT22;39197;53.200;5.792;2023-03-14T15:47:48;7.80;99.90
53310;DHT22;39197;53.200;5.792;2023-03-14T15:50:14;7.90;99.90
53310;DHT22;39197;53.200;5.792;2023-03-14T15:52:40;8.10;99.90
53310;DHT22;39197;53.200;5.792;2023-03-14T15:55:06;8.30;99.90
53310;DHT22;39197;53.200;5.792;2023-03-14T15:57:32;8.20;99.90
53310;DHT22;39197;53.200;5.792;2023-03-14T15:59:59;8.00;99.90
53310;DHT22;39197;53.200;5.792;2023-03-14T16:02:24;7.80;99.90
53310;DHT22;39197;53.200;5.792;2023-03-14T16:04:50;8.00;99.90
53310;DHT22;39197;53.200;5.792;2023-03-14T16:07:16;8.30;99.90
53310;DHT22;39197;53.200;5.792;2023-03-14T16:09:41;8.40;99.90
53310;DHT22;39197;53.200;5.792;2023-03-14T16:12:07;8.80;99.90
53310;DHT22;39197;53.200;5.792;2023-03-14T16:14:34;9.00;99.90
53310;DHT22;39197;53.200;5.792;2023-03-14T16:16:59;9.10;99.90
53310;DHT22;39197;53.200;5.792;2023-03-14T16:19:25;8.70;99.90
53310;DHT22;39197;53.200;5.792;2023-03-14T16:21:52;8.20;99.90
53310;DHT22;39197;53.200;5.792;2023-03-14T16:24:18;8.40;99.90
53310;DHT22;39197;53.200;5.792;2023-03-14T16:26:44;8.40;99.90
53310;DHT22;39197;53.200;5.792;2023-03-14T16:29:10;8.20;99.90
53310;DHT22;39197;53.200;5.792;2023-03-14T16:31:36;7.70;99.90
53310;DHT22;39197;53.200;5.792;2023-03-14T16:34:10;7.60;99.90
53310;DHT22;39197;53.200;5.792;2023-03-14T16:36:36;7.40;99.90
53310;DHT22;39197;53.200;5.792;2023-03-14T16:39:02;7.10;99.90
53310;DHT22;39197;53.200;5.792;2023-03-14T16:41:27;6.80;99.90
53310;DHT22;39197;53.200;5.792;2023-03-14T16:43:56;6.80;99.90
53310;DHT22;39197;53.200;5.792;2023-03-14T16:46:22;6.70;99.90
53310;DHT22;39197;53.200;5.792;2023-03-14T16:48:49;6.50;99.90
53310;DHT22;39197;53.200;5.792;2023-03-14T16:51:15;6.30;99.90
53310;DHT22;39197;53.200;5.792;2023-03-14T16:53:41;6.10;99.90
53310;DHT22;39197;53.200;5.792;2023-03-14T16:56:07;5.90;99.90
53310;DHT22;39197;53.200;5.792;2023-03-14T16:58:33;5.80;99.90
53310;DHT22;39197;53.200;5.792;2023-03-14T17:01:03;5.50;99.90
53310;DHT22;39197;53.200;5.792;2023-03-14T17:03:41;5.60;99.90
53310;DHT22;39197;53.200;5.792;2023-03-14T17:06:20;5.40;99.90